Time;durP1;ratioP1;P1;durP2;ratioP2;P2;SDS_P1;SDS_P2;PMS_P1;PMS_P2;Temp;Humidity;BMP_temperature;BMP_pressure;BME280_temperature;BME280_humidity;BME280_pressure;Samples;Min_cycle;Max_cycle;Signal;HPM_P1;HPM_P2
2022/07/03 00:01:54;;;;;;;4.93;4.63;;;17.90;99.90;;;;;;5051626;28;20190;-64
2022/07/03 00:04:20;;;;;;;4.90;4.60;;;17.80;99.90;;;;;;5051633;28;20213;-65
2022/07/03 00:06:46;;;;;;;4.70;4.40;;;17.70;99.90;;;;;;5051674;28;20194;-64
2022/07/03 00:09:12;;;;;;;5.40;4.60;;;17.70;99.90;;;;;;5051515;28;20171;-65
2022/07/03 00:11:37;;;;;;;4.80;4.40;;;17.60;99.90;;;;;;5051550;28;20639;-64
2022/07/03 00:14:03;;;;;;;4.83;4.43;;;17.50;99.90;;;;;;5051498;28;20179;-65
2022/07/03 00:16:30;;;;;;;13.20;4.93;;;17.50;99.90;;;;;;5051699;28;20593;-64
2022/07/03 00:18:55;;;;;;;7.70;4.57;;;17.40;99.90;;;;;;5051794;28;20182;-64
2022/07/03 00:21:27;;;;;;;5.83;4.63;;;17.40;99.90;;;;;;5051804;28;20628;-64
2022/07/03 00:23:59;;;;;;;4.97;4.67;;;17.40;99.90;;;;;;5051502;28;20189;-65
2022/07/03 00:26:27;;;;;;;4.67;4.33;;;17.40;99.90;;;;;;5033606;28;20221;-65
2022/07/03 00:28:54;;;;;;;9.33;5.07;;;17.40;99.90;;;;;;5051576;28;20175;-64
2022/07/03 00:31:22;;;;;;;4.77;4.37;;;17.30;99.90;;;;;;5051640;28;20228;-64
2022/07/03 00:33:48;;;;;;;8.30;4.47;;;17.20;99.90;;;;;;5033266;28;20179;-64
2022/07/03 00:36:14;;;;;;;5.03;4.63;;;17.20;99.90;;;;;;5051577;28;20206;-65
2022/07/03 00:38:40;;;;;;;5.30;4.90;;;17.20;99.90;;;;;;5051308;28;20646;-65
2022/07/03 00:41:07;;;;;;;5.03;4.63;;;17.20;99.90;;;;;;5051400;28;20213;-65
2022/07/03 00:43:32;;;;;;;5.97;5.47;;;17.20;99.90;;;;;;5051025;28;20171;-64
2022/07/03 00:46:07;;;;;;;5.00;4.50;;;17.30;99.90;;;;;;5051507;28;20175;-65
2022/07/03 00:48:37;;;;;;;5.50;5.00;;;17.40;99.90;;;;;;5051374;28;20208;-65
2022/07/03 00:51:06;;;;;;;5.10;4.67;;;17.40;99.90;;;;;;5050087;28;20186;-65
2022/07/03 00:53:35;;;;;;;5.17;4.77;;;17.50;99.90;;;;;;5050998;28;20202;-65
2022/07/03 00:56:04;;;;;;;5.40;5.00;;;17.60;99.90;;;;;;5033192;28;20209;-65
2022/07/03 00:58:33;;;;;;;5.43;4.70;;;17.70;99.90;;;;;;5051178;28;20612;-65
2022/07/03 01:01:00;;;;;;;5.00;4.60;;;17.70;99.90;;;;;;5051136;28;20254;-65
2022/07/03 01:03:27;;;;;;;5.20;4.90;;;17.70;99.90;;;;;;5051057;28;20704;-65
2022/07/03 01:05:59;;;;;;;7.43;5.67;;;17.60;99.90;;;;;;5052455;28;20292;-64
2022/07/03 01:08:30;;;;;;;5.83;5.50;;;17.60;99.90;;;;;;5054843;28;20233;-65
2022/07/03 01:11:08;;;;;;;5.10;4.73;;;17.60;99.90;;;;;;5054756;28;20179;-65
2022/07/03 01:14:14;;;;;;;5.10;4.70;;;17.50;99.90;;;;;;5054447;28;20183;-65
2022/07/03 01:16:55;;;;;;;4.60;4.23;;;17.50;99.90;;;;;;5054608;28;20194;-64
2022/07/03 01:19:41;;;;;;;7.57;4.60;;;17.50;99.90;;;;;;5054732;28;20654;-65
2022/07/03 01:22:23;;;;;;;5.03;4.63;;;17.30;99.90;;;;;;5054829;28;20171;-65
2022/07/03 01:25:04;;;;;;;5.90;5.40;;;17.20;99.90;;;;;;5054193;28;20200;-65
2022/07/03 01:27:37;;;;;;;5.20;4.80;;;17.20;99.90;;;;;;5054393;28;20264;-65
2022/07/03 01:30:10;;;;;;;5.00;4.70;;;17.10;99.90;;;;;;5054609;28;20557;-65
2022/07/03 01:32:45;;;;;;;5.80;5.20;;;17.10;99.90;;;;;;5054263;28;20260;-65
2022/07/03 01:35:13;;;;;;;5.40;5.00;;;17.20;99.90;;;;;;5054148;28;20205;-65
2022/07/03 01:37:40;;;;;;;8.60;5.53;;;17.20;99.90;;;;;;5054165;28;20198;-65
2022/07/03 01:40:07;;;;;;;5.20;4.80;;;17.10;99.90;;;;;;5054325;28;20254;-65
2022/07/03 01:42:34;;;;;;;5.63;5.10;;;17.10;99.90;;;;;;5054159;28;20171;-64
2022/07/03 01:45:00;;;;;;;5.30;4.90;;;17.10;99.90;;;;;;5054000;28;20551;-64
2022/07/03 01:47:28;;;;;;;5.40;4.90;;;17.00;99.90;;;;;;5054233;28;20687;-65
2022/07/03 01:49:54;;;;;;;5.17;4.67;;;17.10;99.90;;;;;;5053609;28;20186;-65
2022/07/03 01:52:21;;;;;;;5.13;4.83;;;17.10;99.90;;;;;;5053060;28;20186;-65
2022/07/03 01:54:47;;;;;;;5.60;5.10;;;17.00;99.90;;;;;;5035670;28;20222;-65
2022/07/03 01:57:14;;;;;;;5.67;4.90;;;16.90;99.90;;;;;;5053768;28;20277;-65
2022/07/03 01:59:40;;;;;;;5.27;4.87;;;16.90;99.90;;;;;;5053862;28;20174;-65
2022/07/03 02:02:29;;;;;;;5.33;4.93;;;16.80;99.90;;;;;;5053982;28;20213;-65
2022/07/03 02:05:23;;;;;;;6.10;5.17;;;16.80;99.90;;;;;;5035721;28;20190;-65
2022/07/03 02:08:10;;;;;;;6.27;5.77;;;16.70;99.90;;;;;;5053632;28;20745;-65
2022/07/03 02:10:51;;;;;;;5.93;5.53;;;16.70;99.90;;;;;;5053579;28;20178;-64
2022/07/03 02:13:22;;;;;;;5.40;5.00;;;16.60;99.90;;;;;;5053585;28;20232;-65
2022/07/03 02:15:53;;;;;;;5.50;5.00;;;16.60;99.90;;;;;;5053195;28;20210;-65
2022/07/03 02:18:34;;;;;;;6.07;5.47;;;16.50;99.90;;;;;;5053431;28;20191;-65
2022/07/03 02:21:18;;;;;;;6.03;5.53;;;16.50;99.90;;;;;;5053664;28;20285;-65
2022/07/03 02:24:08;;;;;;;9.17;5.33;;;16.50;99.90;;;;;;5053233;28;20521;-64
2022/07/03 02:26:38;;;;;;;6.33;5.67;;;16.50;99.90;;;;;;5035186;28;20245;-65
2022/07/03 02:29:06;;;;;;;7.00;5.70;;;16.40;99.90;;;;;;5054764;28;20171;-69
2022/07/03 02:31:43;;;;;;;6.43;5.23;;;16.40;99.90;;;;;;5054775;28;20659;-66
2022/07/03 02:34:15;;;;;;;6.67;4.97;;;16.40;99.90;;;;;;5037102;28;20540;-68
2022/07/03 02:36:45;;;;;;;5.13;4.73;;;16.40;99.90;;;;;;5036589;28;20615;-70
2022/07/03 02:39:19;;;;;;;6.10;5.20;;;16.30;99.90;;;;;;5054564;28;20173;-67
2022/07/03 02:41:50;;;;;;;5.53;5.03;;;16.40;99.90;;;;;;5054675;28;20175;-69
2022/07/03 02:44:34;;;;;;;5.30;4.90;;;16.40;99.90;;;;;;5054093;28;20167;-67
2022/07/03 02:47:02;;;;;;;6.33;5.00;;;16.30;99.90;;;;;;5054266;28;20690;-67
2022/07/03 02:49:44;;;;;;;5.80;5.20;;;16.30;99.90;;;;;;5054333;28;20170;-67
2022/07/03 02:52:42;;;;;;;5.47;4.90;;;16.30;99.90;;;;;;5054685;28;20257;-69
2022/07/03 02:55:14;;;;;;;7.37;5.30;;;16.30;99.90;;;;;;5035730;28;20217;-68
2022/07/03 02:57:41;;;;;;;6.23;5.63;;;16.30;99.90;;;;;;5054157;28;20205;-68
2022/07/03 03:00:11;;;;;;;5.63;5.27;;;16.30;99.90;;;;;;5054224;28;20170;-67
2022/07/03 03:02:49;;;;;;;5.73;5.23;;;16.30;99.90;;;;;;5035790;28;20212;-67
2022/07/03 03:05:29;;;;;;;5.97;5.30;;;16.30;99.90;;;;;;5054242;28;20619;-68
2022/07/03 03:08:21;;;;;;;7.30;4.80;;;16.20;99.90;;;;;;5054142;28;20731;-66
2022/07/03 03:10:50;;;;;;;5.63;5.03;;;16.20;99.90;;;;;;5054393;28;20185;-69
2022/07/03 03:13:19;;;;;;;5.87;5.30;;;16.20;99.90;;;;;;5053922;28;20229;-68
2022/07/03 03:16:06;;;;;;;7.30;5.53;;;16.20;99.90;;;;;;5053344;28;20213;-70
2022/07/03 03:18:35;;;;;;;5.90;5.40;;;16.20;99.90;;;;;;5053846;28;20170;-68
2022/07/03 03:21:03;;;;;;;8.10;5.40;;;16.10;99.90;;;;;;5053902;28;20255;-70
2022/07/03 03:23:42;;;;;;;7.17;5.80;;;16.00;99.90;;;;;;5053760;28;20198;-69
2022/07/03 03:26:08;;;;;;;7.30;6.60;;;16.00;99.90;;;;;;5053794;28;20182;-68
2022/07/03 03:28:34;;;;;;;5.97;5.37;;;16.00;99.90;;;;;;5053163;28;20673;-70
2022/07/03 03:31:00;;;;;;;5.33;4.83;;;16.00;99.90;;;;;;5053618;28;20183;-68
2022/07/03 03:33:26;;;;;;;5.50;5.10;;;16.00;99.90;;;;;;5053356;28;20198;-67
2022/07/03 03:35:52;;;;;;;5.07;4.77;;;15.90;99.90;;;;;;5052728;28;20210;-65
2022/07/03 03:38:18;;;;;;;6.50;5.27;;;15.90;99.90;;;;;;5052108;28;20664;-67
2022/07/03 03:40:45;;;;;;;5.80;5.40;;;15.90;99.90;;;;;;5051973;28;20641;-66
2022/07/03 03:43:10;;;;;;;5.37;4.80;;;15.90;99.90;;;;;;5051947;28;20232;-67
2022/07/03 03:45:36;;;;;;;6.10;5.23;;;15.90;99.90;;;;;;5051608;28;20171;-66
2022/07/03 03:48:02;;;;;;;5.93;5.33;;;15.90;99.90;;;;;;5051804;28;20202;-66
2022/07/03 03:50:28;;;;;;;5.17;4.87;;;16.00;99.90;;;;;;5051072;28;20183;-66
2022/07/03 03:52:54;;;;;;;9.47;5.20;;;16.00;99.90;;;;;;5051638;28;20361;-67
2022/07/03 03:55:20;;;;;;;7.77;5.30;;;16.00;99.90;;;;;;5051324;28;20288;-66
2022/07/03 03:57:45;;;;;;;7.33;5.67;;;16.10;99.90;;;;;;5051682;28;20588;-66
2022/07/03 04:00:11;;;;;;;11.97;5.13;;;16.10;99.90;;;;;;5051723;28;20656;-66
2022/07/03 04:02:37;;;;;;;5.33;4.83;;;16.10;99.90;;;;;;5051516;28;20264;-67
2022/07/03 04:05:03;;;;;;;6.80;5.30;;;16.20;99.90;;;;;;5051488;28;20264;-66
2022/07/03 04:07:28;;;;;;;8.33;5.53;;;16.30;99.90;;;;;;5051438;28;20623;-66
2022/07/03 04:09:54;;;;;;;6.13;5.53;;;16.40;99.90;;;;;;5051453;28;20174;-64
2022/07/03 04:12:19;;;;;;;6.23;5.47;;;16.50;99.90;;;;;;5051605;28;20189;-66
2022/07/03 04:14:45;;;;;;;10.07;4.90;;;16.60;99.90;;;;;;5051016;28;20194;-66
2022/07/03 04:17:11;;;;;;;5.53;5.03;;;16.70;99.90;;;;;;5051355;28;20191;-66
2022/07/03 04:19:36;;;;;;;5.60;5.00;;;16.80;99.90;;;;;;5051395;28;20174;-67
2022/07/03 04:22:08;;;;;;;5.07;4.77;;;17.00;99.90;;;;;;5051550;28;20211;-64
2022/07/03 04:24:34;;;;;;;6.37;4.80;;;17.10;99.90;;;;;;5051112;28;20198;-65
2022/07/03 04:27:00;;;;;;;8.37;6.17;;;17.30;99.90;;;;;;5051859;28;20238;-66
2022/07/03 04:29:25;;;;;;;4.83;4.47;;;17.50;99.90;;;;;;5051363;28;20215;-64
2022/07/03 04:31:51;;;;;;;5.70;5.20;;;17.80;99.90;;;;;;5051504;28;20217;-64
2022/07/03 04:34:17;;;;;;;5.93;5.50;;;18.00;99.90;;;;;;5051073;28;20266;-64
2022/07/03 04:36:42;;;;;;;11.33;4.93;;;18.20;99.90;;;;;;5033236;28;20245;-64
2022/07/03 04:39:08;;;;;;;5.30;4.90;;;18.40;99.90;;;;;;5051537;28;20171;-66
2022/07/03 04:41:33;;;;;;;8.13;5.17;;;18.20;99.90;;;;;;5037433;28;20582;-64
2022/07/03 04:43:59;;;;;;;6.87;5.83;;;18.20;99.90;;;;;;5054896;28;20175;-67
2022/07/03 04:46:25;;;;;;;6.43;5.50;;;18.10;99.90;;;;;;5055244;28;20248;-67
2022/07/03 04:48:50;;;;;;;6.23;5.63;;;18.10;99.90;;;;;;5055290;28;20270;-66
2022/07/03 04:51:16;;;;;;;6.83;5.27;;;18.30;99.90;;;;;;5054186;28;20569;-66
2022/07/03 04:53:42;;;;;;;5.20;4.83;;;18.40;99.90;;;;;;5054927;28;20179;-64
2022/07/03 04:56:07;;;;;;;5.97;5.20;;;18.50;99.90;;;;;;5054839;28;20207;-64
2022/07/03 04:58:33;;;;;;;9.20;4.63;;;18.60;99.90;;;;;;5054986;28;20212;-64
2022/07/03 05:00:58;;;;;;;6.07;4.53;;;18.90;99.90;;;;;;5054887;28;20175;-64
2022/07/03 05:03:24;;;;;;;5.70;4.37;;;19.10;99.90;;;;;;5054880;28;20688;-64
2022/07/03 05:05:52;;;;;;;6.83;5.20;;;19.30;99.90;;;;;;5037024;28;20260;-64
2022/07/03 05:08:19;;;;;;;6.37;5.43;;;19.60;99.90;;;;;;5054813;28;20567;-65
2022/07/03 05:10:45;;;;;;;7.47;6.83;;;19.90;99.90;;;;;;5054652;28;20167;-64
2022/07/03 05:13:11;;;;;;;9.70;6.40;;;20.30;99.90;;;;;;5054816;28;20178;-65
2022/07/03 05:15:36;;;;;;;8.10;6.43;;;20.50;99.90;;;;;;5054280;28;20210;-64
2022/07/03 05:18:02;;;;;;;9.47;6.37;;;20.70;99.90;;;;;;5054642;28;20260;-64
2022/07/03 05:20:28;;;;;;;8.27;7.68;;;21.10;99.90;;;;;;5054676;28;20170;-65
2022/07/03 05:23:02;;;;;;;5.28;4.88;;;21.40;99.90;;;;;;5054352;28;20213;-64
2022/07/03 05:25:29;;;;;;;5.90;4.60;;;21.80;99.90;;;;;;5054178;28;20179;-64
2022/07/03 05:27:55;;;;;;;5.32;4.82;;;21.90;99.90;;;;;;5054440;28;20222;-65
2022/07/03 05:30:25;;;;;;;6.10;4.78;;;22.10;99.90;;;;;;5054483;28;20227;-64
2022/07/03 05:32:52;;;;;;;4.60;4.30;;;22.00;99.90;;;;;;5054125;28;20179;-65
2022/07/03 05:35:18;;;;;;;4.63;4.20;;;21.90;99.90;;;;;;5053902;28;20620;-65
2022/07/03 05:37:43;;;;;;;5.10;4.75;;;21.80;99.90;;;;;;5054136;28;20194;-65
2022/07/03 05:40:09;;;;;;;7.22;4.65;;;21.70;99.90;;;;;;5054293;28;20166;-64
2022/07/03 05:42:35;;;;;;;5.20;4.70;;;21.60;99.90;;;;;;5054168;28;20179;-64
2022/07/03 05:45:01;;;;;;;4.75;4.32;;;21.40;99.90;;;;;;5053763;28;20182;-65
2022/07/03 05:47:27;;;;;;;5.07;4.60;;;21.40;99.90;;;;;;5053999;28;20194;-64
2022/07/03 05:49:54;;;;;;;7.10;6.60;;;21.40;99.90;;;;;;5052922;28;20175;-64
2022/07/03 05:52:19;;;;;;;8.73;5.87;;;21.50;99.90;;;;;;5051932;28;20699;-64
2022/07/03 05:54:45;;;;;;;4.97;4.65;;;21.50;99.90;;;;;;5053464;28;20202;-64
2022/07/03 05:57:12;;;;;;;6.25;4.93;;;21.40;99.90;;;;;;5036203;28;20202;-64
2022/07/03 05:59:38;;;;;;;6.72;6.13;;;21.20;99.90;;;;;;5053733;28;20171;-64
2022/07/03 06:02:04;;;;;;;7.95;7.20;;;21.40;99.90;;;;;;5053854;28;20258;-64
2022/07/03 06:04:30;;;;;;;6.28;5.78;;;21.50;99.90;;;;;;5053531;28;20209;-64
2022/07/03 06:06:55;;;;;;;4.63;4.22;;;21.70;99.90;;;;;;5053593;28;20198;-63
2022/07/03 06:09:24;;;;;;;6.97;4.72;;;21.90;99.90;;;;;;5052096;28;20669;-63
2022/07/03 06:11:49;;;;;;;5.75;4.32;;;21.90;99.90;;;;;;5065848;28;20658;-63
2022/07/03 06:14:15;;;;;;;4.75;4.30;;;21.90;99.90;;;;;;5055156;28;20170;-63
2022/07/03 06:16:41;;;;;;;5.68;5.10;;;22.10;99.90;;;;;;5073180;28;20600;-63
2022/07/03 06:19:06;;;;;;;5.05;4.57;;;22.10;99.90;;;;;;5073392;28;20647;-63
2022/07/03 06:21:32;;;;;;;6.50;5.30;;;22.10;99.90;;;;;;5073413;28;20170;-63
2022/07/03 06:23:59;;;;;;;5.05;4.65;;;22.20;99.90;;;;;;5073102;28;20181;-63
2022/07/03 06:26:25;;;;;;;7.35;4.63;;;22.30;99.90;;;;;;5073190;28;20217;-64
2022/07/03 06:28:51;;;;;;;5.15;4.60;;;22.40;99.90;;;;;;5073059;28;20178;-64
2022/07/03 06:31:17;;;;;;;5.43;4.93;;;22.50;99.90;;;;;;5073275;28;20182;-63
2022/07/03 06:33:43;;;;;;;5.18;4.68;;;22.60;99.90;;;;;;5073167;28;20174;-64
2022/07/03 06:36:08;;;;;;;5.13;4.82;;;22.50;99.90;;;;;;5072830;28;20210;-63
2022/07/03 06:38:34;;;;;;;5.22;4.85;;;22.50;99.90;;;;;;5072894;28;20178;-63
2022/07/03 06:40:59;;;;;;;5.63;5.13;;;22.80;99.90;;;;;;5072925;28;20189;-63
2022/07/03 06:43:25;;;;;;;5.10;4.60;;;23.00;99.90;;;;;;5072594;28;20174;-63
2022/07/03 06:45:51;;;;;;;5.20;4.70;;;23.10;99.90;;;;;;5072702;28;20205;-63
2022/07/03 06:48:16;;;;;;;5.00;4.60;;;23.40;99.90;;;;;;5072741;28;20233;-64
2022/07/03 06:50:42;;;;;;;5.00;4.50;;;23.60;99.90;;;;;;5071209;28;20200;-64
2022/07/03 06:53:07;;;;;;;5.57;4.55;;;24.00;99.90;;;;;;5072651;28;20181;-64
2022/07/03 06:55:33;;;;;;;7.18;4.90;;;24.40;99.90;;;;;;5072459;28;20260;-64
2022/07/03 06:57:59;;;;;;;5.22;4.72;;;24.60;99.90;;;;;;5072493;28;20192;-64
2022/07/03 07:00:24;;;;;;;5.50;4.57;;;24.70;99.90;;;;;;5072570;28;20254;-63
2022/07/03 07:02:50;;;;;;;4.93;4.45;;;24.60;99.90;;;;;;5072312;28;20175;-63
2022/07/03 07:05:15;;;;;;;6.05;4.55;;;24.90;99.90;;;;;;5072263;28;20597;-63
2022/07/03 07:07:41;;;;;;;6.68;4.70;;;25.00;99.90;;;;;;5072217;28;20202;-63
2022/07/03 07:10:07;;;;;;;5.40;4.50;;;25.20;99.90;;;;;;5054523;28;20170;-64
2022/07/03 07:12:33;;;;;;;5.25;4.85;;;25.40;99.90;;;;;;5072124;28;20212;-63
2022/07/03 07:14:58;;;;;;;4.28;3.97;;;25.60;99.90;;;;;;5071995;28;20243;-63
2022/07/03 07:17:24;;;;;;;5.38;4.60;;;25.60;99.90;;;;;;5072227;28;20561;-63
2022/07/03 07:19:49;;;;;;;4.60;4.15;;;25.50;99.90;;;;;;5072216;28;20245;-64
2022/07/03 07:22:15;;;;;;;4.57;4.25;;;25.40;99.90;;;;;;5072262;28;20181;-64
2022/07/03 07:24:41;;;;;;;6.22;4.90;;;25.30;99.90;;;;;;5071870;28;20166;-64
2022/07/03 07:27:06;;;;;;;5.00;4.20;;;25.20;99.90;;;;;;5071999;28;20210;-64
2022/07/03 07:29:32;;;;;;;4.82;4.43;;;25.30;99.90;;;;;;5072215;28;20206;-64
2022/07/03 07:31:57;;;;;;;5.00;4.20;;;25.50;99.90;;;;;;5072060;28;20174;-64
2022/07/03 07:34:23;;;;;;;4.30;3.90;;;25.80;99.90;;;;;;5071679;28;20726;-64
2022/07/03 07:36:49;;;;;;;8.48;4.55;;;26.10;99.90;;;;;;5071762;28;20189;-64
2022/07/03 07:39:14;;;;;;;4.45;3.97;;;26.40;99.90;;;;;;5072101;28;20167;-64
2022/07/03 07:41:40;;;;;;;4.45;4.15;;;26.70;99.90;;;;;;5071906;28;20216;-64
2022/07/03 07:44:05;;;;;;;5.68;4.15;;;26.90;99.90;;;;;;5071705;28;20170;-64
2022/07/03 07:46:31;;;;;;;4.82;4.18;;;27.00;99.90;;;;;;5072119;28;20206;-63
2022/07/03 07:48:57;;;;;;;5.03;4.05;;;27.00;99.90;;;;;;5071823;28;20712;-64
2022/07/03 07:51:23;;;;;;;5.40;4.80;;;27.00;99.90;;;;;;5071406;28;20182;-65
2022/07/03 07:53:50;;;;;;;4.95;4.55;;;27.00;99.90;;;;;;5071749;28;20212;-64
2022/07/03 07:56:15;;;;;;;4.22;3.92;;;26.90;99.90;;;;;;5053845;28;20212;-64
2022/07/03 07:58:42;;;;;;;5.95;4.30;;;27.20;99.90;;;;;;5072342;28;20170;-64
2022/07/03 08:06:35;;;;;;;5.13;4.10;;;27.40;99.90;;;;;;5071668;28;20251;-64
2022/07/03 08:09:01;;;;;;;4.00;3.70;;;27.20;99.90;;;;;;5071778;28;20182;-64
2022/07/03 08:11:27;;;;;;;3.83;3.53;;;27.20;99.90;;;;;;5071601;28;20172;-64
2022/07/03 08:13:52;;;;;;;4.63;4.22;;;27.10;99.90;;;;;;5070915;28;20197;-64
2022/07/03 08:16:18;;;;;;;5.10;3.20;;;27.30;99.90;;;;;;5071518;28;20755;-64
2022/07/03 08:18:44;;;;;;;7.75;3.72;;;27.50;99.90;;;;;;5071509;28;20215;-64
2022/07/03 08:21:09;;;;;;;4.97;3.70;;;27.60;99.90;;;;;;5071492;28;20162;-64
2022/07/03 08:23:35;;;;;;;3.92;3.47;;;28.00;99.90;;;;;;5071050;28;20178;-64
2022/07/03 08:26:01;;;;;;;4.90;4.57;;;28.30;99.90;;;;;;5071486;28;20166;-64
2022/07/03 08:28:27;;;;;;;4.53;3.53;;;28.20;99.90;;;;;;5071466;28;20209;-64
2022/07/03 08:30:53;;;;;;;5.18;3.63;;;28.00;99.90;;;;;;5071349;28;20174;-64
2022/07/03 08:33:18;;;;;;;4.68;4.22;;;28.20;99.90;;;;;;5071549;28;20182;-64
2022/07/03 08:35:44;;;;;;;4.25;3.50;;;28.40;99.90;;;;;;5070928;28;20198;-64
2022/07/03 08:38:09;;;;;;;3.63;3.40;;;28.60;99.90;;;;;;5071394;28;20571;-64
2022/07/03 08:40:36;;;;;;;6.13;3.60;;;28.50;99.90;;;;;;5071386;28;20538;-64
2022/07/03 08:43:03;;;;;;;4.90;3.63;;;28.40;99.90;;;;;;5071335;28;20182;-65
2022/07/03 08:45:30;;;;;;;4.63;3.95;;;28.40;99.90;;;;;;5070928;28;20178;-64
2022/07/03 08:47:58;;;;;;;5.15;3.53;;;28.50;99.90;;;;;;5071227;28;20276;-64
2022/07/03 08:50:24;;;;;;;3.80;3.50;;;28.50;99.90;;;;;;5071227;28;20202;-64
2022/07/03 08:52:50;;;;;;;3.47;3.17;;;28.60;99.90;;;;;;5071399;28;20213;-64
2022/07/03 08:55:17;;;;;;;3.83;3.53;;;28.60;99.90;;;;;;5070918;28;20206;-64
2022/07/03 08:57:44;;;;;;;6.25;3.40;;;28.70;99.90;;;;;;5070987;28;20196;-65
2022/07/03 09:00:18;;;;;;;3.10;2.90;;;28.90;99.90;;;;;;5071201;28;20197;-64
2022/07/03 09:02:45;;;;;;;4.38;3.50;;;28.90;99.90;;;;;;5071170;28;20170;-64
2022/07/03 09:05:12;;;;;;;8.32;3.33;;;29.10;99.90;;;;;;5070771;28;20174;-64
2022/07/03 09:07:40;;;;;;;10.13;3.47;;;29.60;99.90;;;;;;5070888;28;20738;-64
2022/07/03 09:10:08;;;;;;;6.55;3.22;;;29.60;99.90;;;;;;5071367;28;20624;-64
2022/07/03 09:12:34;;;;;;;2.97;2.78;;;29.80;99.90;;;;;;5071080;28;20197;-65
2022/07/03 09:15:02;;;;;;;5.20;3.20;;;30.00;99.90;;;;;;5070631;28;20206;-65
2022/07/03 09:17:28;;;;;;;2.90;2.70;;;30.20;99.90;;;;;;5070894;28;20730;-65
2022/07/03 09:19:54;;;;;;;2.95;2.75;;;29.90;99.90;;;;;;5052947;28;20170;-64
2022/07/03 09:22:27;;;;;;;4.03;3.25;;;29.70;99.90;;;;;;5071026;28;20170;-65
2022/07/03 09:25:02;;;;;;;3.58;3.17;;;29.80;99.90;;;;;;5070682;28;20636;-65
2022/07/03 09:27:28;;;;;;;5.30;3.75;;;30.00;99.90;;;;;;5072884;28;20269;-65
2022/07/03 09:29:59;;;;;;;6.50;3.13;;;30.00;99.90;;;;;;5074473;28;20257;-65
2022/07/03 09:32:38;;;;;;;4.30;3.10;;;30.10;99.90;;;;;;5074522;28;20206;-65
2022/07/03 09:35:10;;;;;;;4.53;3.90;;;30.30;99.90;;;;;;5058034;28;20228;-65
2022/07/03 09:37:36;;;;;;;4.32;3.63;;;30.00;99.90;;;;;;5074221;28;20194;-65
2022/07/03 09:40:02;;;;;;;5.72;3.40;;;29.90;99.90;;;;;;5074490;28;20228;-65
2022/07/03 09:42:28;;;;;;;5.22;3.47;;;29.90;99.90;;;;;;5074325;28;20193;-65
2022/07/03 09:44:54;;;;;;;3.17;2.97;;;30.00;99.90;;;;;;5073806;28;20201;-65
2022/07/03 09:47:23;;;;;;;3.13;2.92;;;30.20;99.90;;;;;;5074524;28;20198;-66
2022/07/03 09:50:04;;;;;;;3.78;3.28;;;30.20;99.90;;;;;;5074239;28;20545;-65
2022/07/03 09:52:33;;;;;;;3.10;2.90;;;30.10;99.90;;;;;;5074064;28;20259;-65
2022/07/03 09:55:01;;;;;;;3.53;3.22;;;29.90;99.90;;;;;;5073816;28;20208;-65
2022/07/03 09:57:28;;;;;;;3.80;3.50;;;30.00;99.90;;;;;;5074084;28;20196;-65
2022/07/03 10:00:21;;;;;;;3.40;3.10;;;30.20;99.90;;;;;;5074303;28;20530;-64
2022/07/03 10:02:56;;;;;;;3.75;3.35;;;30.60;99.90;;;;;;5071274;28;20190;-65
2022/07/03 10:05:24;;;;;;;3.63;3.35;;;30.50;99.90;;;;;;5073810;28;20227;-65
2022/07/03 10:07:51;;;;;;;3.90;3.40;;;30.50;99.90;;;;;;5055677;28;20565;-65
2022/07/03 10:10:19;;;;;;;3.53;3.22;;;30.40;99.90;;;;;;5074216;28;20257;-65
2022/07/03 10:12:46;;;;;;;3.47;3.13;;;30.20;99.90;;;;;;5073818;28;20166;-65
2022/07/03 10:15:14;;;;;;;3.58;3.25;;;30.00;99.90;;;;;;5073596;28;20393;-66
2022/07/03 10:17:41;;;;;;;4.68;3.25;;;30.00;99.90;;;;;;5073720;28;20218;-66
2022/07/03 10:20:10;;;;;;;3.67;3.38;;;29.90;99.90;;;;;;5073760;28;20204;-65
2022/07/03 10:22:38;;;;;;;4.43;3.33;;;29.80;99.90;;;;;;5073400;28;20220;-65
2022/07/03 10:25:05;;;;;;;4.60;3.55;;;30.00;99.90;;;;;;5073168;28;20186;-65
2022/07/03 10:27:31;;;;;;;5.15;3.67;;;30.00;99.90;;;;;;5073778;28;20206;-66
2022/07/03 10:29:58;;;;;;;4.00;3.47;;;29.80;99.90;;;;;;5073664;28;20174;-65
2022/07/03 10:32:26;;;;;;;8.30;3.65;;;29.80;99.90;;;;;;5073451;28;20181;-65
2022/07/03 10:34:52;;;;;;;3.50;3.20;;;29.70;99.90;;;;;;5072972;28;20205;-65
2022/07/03 10:37:21;;;;;;;4.10;3.80;;;29.40;99.90;;;;;;5073033;28;20239;-65
2022/07/03 10:44:45;;;;;;;6.38;3.60;;;29.40;99.90;;;;;;5073411;28;20662;-65
2022/07/03 10:45:34;;;;;;;5.88;3.20;;;29.80;99.90;;;;;;5052710;28;20272;-65
2022/07/03 10:47:59;;;;;;;3.78;3.45;;;30.00;99.90;;;;;;5053385;28;20237;-65
2022/07/03 10:50:25;;;;;;;3.33;3.13;;;30.00;99.90;;;;;;5052845;28;20262;-65
2022/07/03 10:52:51;;;;;;;5.00;3.08;;;30.20;99.90;;;;;;5053242;28;20183;-65
2022/07/03 10:55:18;;;;;;;4.53;3.53;;;30.50;99.90;;;;;;5052299;28;20195;-64
2022/07/03 10:58:07;;;;;;;5.32;3.22;;;30.30;99.90;;;;;;5052586;28;20191;-65
2022/07/03 11:00:56;;;;;;;3.40;3.20;;;30.50;99.90;;;;;;5052613;28;20573;-65
2022/07/03 11:03:51;;;;;;;3.30;3.10;;;30.50;99.90;;;;;;5052654;28;20170;-65
2022/07/03 11:06:17;;;;;;;2.75;2.55;;;30.30;99.90;;;;;;5052425;28;20183;-65
2022/07/03 11:09:15;;;;;;;3.70;3.30;;;30.20;99.90;;;;;;5052722;28;20281;-65
2022/07/03 11:12:00;;;;;;;3.08;2.88;;;30.10;99.90;;;;;;5018983;28;20604;-65
2022/07/03 11:14:27;;;;;;;3.20;2.90;;;29.90;99.90;;;;;;5052386;28;20209;-65
2022/07/03 11:17:19;;;;;;;4.28;3.90;;;29.70;99.90;;;;;;5052466;28;20652;-65
2022/07/03 11:22:56;;;;;;;3.22;2.90;;;29.60;99.90;;;;;;5052448;28;20228;-65
2022/07/03 11:25:24;;;;;;;3.25;2.95;;;29.40;99.90;;;;;;5051779;28;20209;-65
2022/07/03 11:27:52;;;;;;;4.07;2.90;;;29.50;99.90;;;;;;5052399;28;20294;-65
2022/07/03 11:30:18;;;;;;;3.38;2.97;;;29.80;99.90;;;;;;5047383;28;20589;-65
2022/07/03 11:32:49;;;;;;;3.67;2.72;;;30.10;99.90;;;;;;5052085;28;20175;-65
2022/07/03 11:35:42;;;;;;;2.88;2.67;;;30.30;99.90;;;;;;5051982;28;20301;-65
2022/07/03 11:38:08;;;;;;;3.10;2.80;;;30.20;99.90;;;;;;5051947;28;20237;-65
2022/07/03 11:40:39;;;;;;;2.90;2.70;;;30.10;99.90;;;;;;5049981;28;20198;-65
2022/07/03 11:43:05;;;;;;;3.45;3.20;;;30.20;99.90;;;;;;5050238;28;20178;-65
2022/07/03 11:45:31;;;;;;;3.10;2.90;;;30.10;99.90;;;;;;5051171;28;20183;-65
2022/07/03 11:47:57;;;;;;;3.10;2.90;;;30.00;99.90;;;;;;5051870;28;20624;-65
2022/07/03 11:50:37;;;;;;;6.50;3.22;;;30.10;99.90;;;;;;5051761;28;20177;-66
2022/07/03 11:53:18;;;;;;;7.22;2.80;;;30.40;99.90;;;;;;5051672;28;20186;-65
2022/07/03 11:55:50;;;;;;;2.58;2.38;;;30.60;99.90;;;;;;5033590;28;20687;-65
2022/07/03 11:58:15;;;;;;;3.35;3.13;;;30.50;99.90;;;;;;5051326;28;20202;-65
2022/07/03 12:00:41;;;;;;;3.60;3.30;;;30.50;99.90;;;;;;5051831;28;20170;-65
2022/07/03 12:03:07;;;;;;;2.85;2.65;;;30.30;99.90;;;;;;5051595;28;20175;-65
2022/07/03 12:05:33;;;;;;;3.53;2.70;;;30.50;99.90;;;;;;5051626;28;20261;-64
2022/07/03 12:08:05;;;;;;;3.33;3.03;;;30.40;99.90;;;;;;5051437;28;20218;-65
2022/07/03 12:10:41;;;;;;;3.67;2.88;;;30.40;99.90;;;;;;5051723;28;20171;-65
2022/07/03 12:13:19;;;;;;;3.72;2.65;;;30.40;99.90;;;;;;5051295;28;20542;-65
2022/07/03 12:15:46;;;;;;;6.13;3.33;;;30.60;99.90;;;;;;5051424;28;20203;-65
2022/07/03 12:18:12;;;;;;;2.60;2.50;;;30.60;99.90;;;;;;5051441;28;20202;-65
2022/07/03 12:20:37;;;;;;;3.30;2.80;;;30.50;99.90;;;;;;5051637;28;20170;-65
2022/07/03 12:23:03;;;;;;;3.63;3.28;;;30.80;99.90;;;;;;5051140;28;20228;-65
2022/07/03 12:25:31;;;;;;;3.10;2.90;;;31.10;99.90;;;;;;5051207;28;20200;-65
2022/07/03 12:27:57;;;;;;;4.50;2.50;;;31.20;99.90;;;;;;5051109;28;20259;-65
2022/07/03 12:30:25;;;;;;;3.10;2.90;;;30.80;99.90;;;;;;5051570;28;20178;-65
2022/07/03 12:32:51;;;;;;;2.83;2.50;;;30.40;99.90;;;;;;5050985;28;20198;-65
2022/07/03 12:35:21;;;;;;;2.70;2.50;;;30.30;99.90;;;;;;5050774;28;20202;-65
2022/07/03 12:37:47;;;;;;;3.15;2.70;;;30.20;99.90;;;;;;5051126;28;20183;-65
2022/07/03 12:40:13;;;;;;;3.13;2.72;;;30.30;99.90;;;;;;5051014;28;20261;-65
2022/07/03 12:42:50;;;;;;;4.88;2.97;;;29.80;99.90;;;;;;5051085;28;20524;-65
2022/07/03 12:45:21;;;;;;;2.90;2.70;;;29.40;99.90;;;;;;5050607;28;20175;-64
2022/07/03 12:48:04;;;;;;;4.13;2.78;;;29.30;99.90;;;;;;5050847;28;20658;-65
2022/07/03 12:50:54;;;;;;;3.03;2.83;;;29.30;99.90;;;;;;5050906;28;20344;-65
2022/07/03 12:53:27;;;;;;;3.10;2.90;;;29.30;99.90;;;;;;5051024;28;20171;-64
2022/07/03 12:55:53;;;;;;;2.92;2.83;;;29.40;99.90;;;;;;5050969;28;20224;-65
2022/07/03 13:01:24;;;;;;;4.80;3.00;;;29.40;99.90;;;;;;5033449;28;20241;-65
2022/07/03 13:03:50;;;;;;;2.80;2.70;;;29.80;99.90;;;;;;5036798;28;20656;-65
2022/07/03 13:06:16;;;;;;;2.72;2.53;;;30.20;99.90;;;;;;5054875;28;20175;-64
2022/07/03 13:08:56;;;;;;;3.15;2.95;;;30.40;99.90;;;;;;5054620;28;20179;-65
2022/07/03 13:11:35;;;;;;;2.72;2.53;;;30.70;99.90;;;;;;5054821;28;20244;-65